Baltimore, Maryland
Traffic Map
Current Weather Conditions
Baltimore, Maryland
Few Clouds
Few Clouds
23°
Feels Like: 23°
Wind Chill: 23° Ceiling: Unl
Heat Index: 23° Visibility: 7mi
Dew Point: 22° Wind: 3mph
Humidity: 96% Direction: 240° (WSW)
Pressure: 29.98in Gusts: 0mph
Raw Report DataKBWI 160054Z 24003KT 7SM FEW045 M05/M06 A2998 RMK AO2 SLP152 I1000 T10501056
Traffic Incident Summary
Active as of:
Severity:
Category:
InformationThere was an issue retrieving the traffic information for this location. Please try a different location or try again shortly.
Advertisements